GMMX/RAK METAR and TAF weather

Enter ICAO airport designator
Station Type Date Time Source
GMMX METAR 2022/09/26 10:30 UTC NOAA

GMMX 261030Z 04005KT 350V080 8000 SCT016 OVC026 19/16 Q1017 NOSIG


Station Type Date Time Source
GMMX Decoded METAR 2022/09/26 10:30 UTC NOAA

Marrakech, Morocco (GMMX) 31-37N 008-02W 466M
Sep 26, 2022 - 06:30 AM EDT / 2022.09.26 1030 UTC
Wind: from the NE (040 degrees) at 6 MPH (5 KT) (direction variable):0
Visibility: 4 mile(s):0
Sky conditions: overcast
Temperature: 66 F (19 C)
Dew Point: 60 F (16 C)
Relative Humidity: 82%
Pressure (altimeter): 30.03 in. Hg (1017 hPa)
ob: GMMX 261030Z 04005KT 350V080 8000 SCT016 OVC026 19/16 Q1017 NOSIG
cycle: 10

Station Type Date Time Source
GMMX TAF 2022/09/26 06:21 UTC NOAA

TAF GMMX 260500Z 2606/2712 24006KT 8000 BKN020
TEMPO 2615/2622 34016KT

Example: see airport list